Terminal Aerodrome Forecast
Issued by NWS

Home | Current Version | Previous Version | Text Only | Print | Product List | Glossary On
Versions: 1 2 3 4 5 6 7 8 9 10 11 12 13 14 15 16 17 18 19 20 21
893
FTUS46 KPDT 170152 AAA
TAFPSC
TAF AMD
KPSC 170152Z 1702/1724 VRB06KT P6SM OVC009
     FM170600 VRB04KT P6SM OVC012
     FM171500 21005KT P6SM BKN050 OVC100
     FM172100 22008KT P6SM SCT050 BKN100=

USA.gov is the U.S. government's official web portal to all federal, state and local government web resources and services.